Time;durP1;ratioP1;P1;durP2;ratioP2;P2;SDS_P1;SDS_P2;PMS_P1;PMS_P2;Temp;Humidity;BMP_temperature;BMP_pressure;BME280_temperature;BME280_humidity;BME280_pressure;Samples;Min_cycle;Max_cycle;Signal;HPM_P1;HPM_P2
2022/03/02 00:00:16;;;;;;;223.72;96.45;;;;;;;-4.29;63.24;101676.91;1997215;89;29427;-66
2022/03/02 00:03:20;;;;;;;231.23;95.42;;;;;;;-4.34;63.38;101678.90;1997134;88;27723;-66
2022/03/02 00:06:22;;;;;;;225.15;94.52;;;;;;;-4.38;63.45;101675.27;1997168;88;32954;-67
2022/03/02 00:09:23;;;;;;;223.95;91.55;;;;;;;-4.43;63.51;101676.86;1997303;89;29637;-68
2022/03/02 00:12:25;;;;;;;233.28;90.07;;;;;;;-4.47;63.50;101675.88;1997346;88;27714;-65
2022/03/02 00:15:27;;;;;;;215.28;90.62;;;;;;;-4.52;63.51;101672.20;1997258;89;29463;-68
2022/03/02 00:18:29;;;;;;;204.45;80.77;;;;;;;-4.56;63.71;101677.28;1997115;89;31111;-65
2022/03/02 00:21:31;;;;;;;204.85;80.97;;;;;;;-4.62;63.83;101672.70;1997110;88;32967;-69
2022/03/02 00:24:33;;;;;;;192.40;78.42;;;;;;;-4.67;63.98;101669.93;1997131;89;30445;-68
2022/03/02 00:27:36;;;;;;;186.88;74.67;;;;;;;-4.70;64.09;101675.05;1997394;89;28144;-66
2022/03/02 00:30:41;;;;;;;209.37;83.42;;;;;;;-4.72;64.12;101676.74;1997228;89;29465;-67
2022/03/02 00:33:42;;;;;;;;;;;;;;;-4.76;64.14;101670.50;2000753;88;31082;-66
2022/03/02 00:36:45;;;;;;;227.50;85.00;;;;;;;-4.79;64.24;101675.61;2002406;88;33180;-66
2022/03/02 00:39:59;;;;;;;302.68;112.45;;;;;;;-4.81;64.35;101672.48;1997571;88;29650;-66
2022/03/02 00:43:00;;;;;;;221.62;87.50;;;;;;;-4.82;64.46;101668.08;1997139;88;28302;-66
2022/03/02 00:46:02;;;;;;;210.57;83.82;;;;;;;-4.85;64.39;101671.89;1997190;88;28685;-67
2022/03/02 00:49:04;;;;;;;202.35;83.03;;;;;;;-4.89;64.49;101675.73;1996664;88;31401;-67
2022/03/02 00:52:09;;;;;;;198.43;78.35;;;;;;;-4.92;64.60;101675.61;1996434;89;33739;-69
2022/03/02 00:55:10;;;;;;;158.35;59.73;;;;;;;-4.93;64.74;101665.98;1997443;89;29705;-67
2022/03/02 00:58:12;;;;;;;228.02;87.55;;;;;;;-4.95;64.71;101658.91;1997311;88;27674;-65
2022/03/02 01:01:15;;;;;;;225.18;87.70;;;;;;;-4.98;64.73;101654.91;1997146;88;28634;-68
2022/03/02 01:04:16;;;;;;;221.07;85.57;;;;;;;-5.01;64.71;101653.48;1997264;88;31227;-65
2022/03/02 01:07:18;;;;;;;239.97;90.15;;;;;;;-5.05;64.73;101648.14;1997037;89;33771;-68
2022/03/02 01:10:21;;;;;;;292.50;105.43;;;;;;;-5.08;64.71;101647.14;1997076;89;29637;-65
2022/03/02 01:13:22;;;;;;;263.57;98.78;;;;;;;-5.11;64.91;101641.80;1997295;89;27802;-65
2022/03/02 01:16:24;;;;;;;239.25;92.92;;;;;;;-5.13;65.01;101643.06;1997319;88;28649;-64
2022/03/02 01:19:26;;;;;;;244.18;91.57;;;;;;;-5.16;65.02;101637.72;1997045;89;31061;-65
2022/03/02 01:22:28;;;;;;;256.77;96.97;;;;;;;-5.18;65.07;101635.47;1997085;89;33753;-64
2022/03/02 01:25:30;;;;;;;232.60;88.42;;;;;;;-5.21;65.08;101628.81;1997149;89;29626;-66
2022/03/02 01:28:31;;;;;;;238.15;91.53;;;;;;;-5.24;65.07;101628.30;1997169;88;27638;-65
2022/03/02 01:31:33;;;;;;;231.13;89.03;;;;;;;-5.26;65.11;101621.22;1996751;88;28787;-67
2022/03/02 01:34:36;;;;;;;223.18;85.77;;;;;;;-5.29;65.20;101626.36;1997264;89;31067;-66
2022/03/02 01:37:38;;;;;;;222.25;87.72;;;;;;;-5.32;65.20;101620.58;1996933;89;34219;-67
2022/03/02 01:40:40;;;;;;;207.30;83.30;;;;;;;-5.36;65.19;101620.89;1997431;87;29679;-65
2022/03/02 01:43:42;;;;;;;209.62;80.07;;;;;;;-5.39;65.22;101615.55;2006017;87;27705;-65
2022/03/02 01:46:51;;;;;;;206.07;79.27;;;;;;;-5.42;65.37;101607.59;2020060;87;29510;-64
2022/03/02 01:49:56;;;;;;;200.18;79.75;;;;;;;-5.44;65.40;101606.65;2002156;87;31064;-64
2022/03/02 01:53:00;;;;;;;181.47;74.97;;;;;;;-5.48;65.43;101594.34;2003112;88;32966;-67
2022/03/02 01:56:05;;;;;;;174.65;71.40;;;;;;;-5.50;65.46;101599.48;1971368;90;30521;-64
2022/03/02 01:59:07;;;;;;;185.57;73.85;;;;;;;-5.52;65.48;101594.61;1987751;87;27762;-64
2022/03/02 02:02:09;;;;;;;188.50;72.55;;;;;;;-5.55;65.54;101593.63;1997018;88;29302;-69
2022/03/02 02:05:11;;;;;;;185.43;72.40;;;;;;;-5.59;65.55;101591.72;1996941;88;31062;-68
2022/03/02 02:08:13;;;;;;;176.75;71.90;;;;;;;-5.62;65.67;101577.27;1997066;88;33761;-68
2022/03/02 02:11:15;;;;;;;169.17;65.78;;;;;;;-5.67;65.72;101571.45;1997512;87;30377;-65
2022/03/02 02:14:17;;;;;;;169.35;70.37;;;;;;;-5.69;65.78;101575.73;1996339;89;27761;-65
2022/03/02 02:17:18;;;;;;;176.27;69.35;;;;;;;-5.71;65.86;101576.08;1997104;88;28808;-68
2022/03/02 02:20:20;;;;;;;170.00;65.95;;;;;;;-5.74;65.76;101576.39;2012375;87;31075;-65
2022/03/02 02:23:22;;;;;;;181.43;75.32;;;;;;;-5.77;65.83;101564.52;2002939;87;33698;-66
2022/03/02 02:26:25;;;;;;;173.00;72.78;;;;;;;-5.81;65.94;101569.62;1997107;89;29642;-69
2022/03/02 02:29:29;;;;;;;192.62;76.60;;;;;;;-5.84;65.99;101568.19;1997119;89;27709;-68
2022/03/02 02:32:31;;;;;;;194.57;76.80;;;;;;;-5.84;66.09;101564.70;2015781;86;28862;-66
2022/03/02 02:35:33;;;;;;;189.13;73.72;;;;;;;-5.87;66.23;101557.63;2009518;87;31767;-66
2022/03/02 02:38:35;;;;;;;175.87;74.50;;;;;;;-5.88;66.19;101560.20;2004616;88;32949;-66
2022/03/02 02:41:37;;;;;;;180.15;72.70;;;;;;;-5.91;66.13;101557.06;2005503;88;29850;-65
2022/03/02 02:44:39;;;;;;;166.45;71.42;;;;;;;-5.94;66.09;101554.34;2005555;88;27608;-64
2022/03/02 02:47:42;;;;;;;169.28;69.10;;;;;;;-5.98;66.12;101553.34;2035432;87;27728;-65
2022/03/02 02:50:44;;;;;;;160.28;66.62;;;;;;;-6.00;66.14;101556.33;2042199;87;31826;-64
2022/03/02 02:53:46;;;;;;;160.57;67.37;;;;;;;-6.02;66.41;101557.98;2042228;87;33764;-69
2022/03/02 02:56:47;;;;;;;157.95;63.13;;;;;;;-6.05;66.50;101551.77;2042448;87;29807;-66
2022/03/02 02:59:49;;;;;;;164.90;64.97;;;;;;;-6.09;66.53;101552.48;2013260;87;28310;-65
2022/03/02 03:02:53;;;;;;;154.03;62.93;;;;;;;-6.11;66.49;101556.31;2018364;87;28661;-68
2022/03/02 03:05:55;;;;;;;152.65;61.70;;;;;;;-6.14;66.55;101553.17;2025278;87;31040;-69
2022/03/02 03:08:57;;;;;;;138.03;60.52;;;;;;;-6.17;66.54;101551.75;2005324;88;33772;-65
2022/03/02 03:11:59;;;;;;;142.10;58.60;;;;;;;-6.20;66.65;101546.41;2005272;88;29660;-66
2022/03/02 03:15:01;;;;;;;164.30;62.35;;;;;;;-6.23;66.80;101545.01;2004788;88;27738;-65
2022/03/02 03:18:05;;;;;;;145.92;62.95;;;;;;;-6.25;66.74;101544.05;1985048;88;28665;-66
2022/03/02 03:21:07;;;;;;;152.22;62.55;;;;;;;-6.27;66.74;101543.10;2009911;87;31036;-66
2022/03/02 03:24:09;;;;;;;149.18;61.25;;;;;;;-6.28;66.80;101549.14;2005291;88;33222;-66
2022/03/02 03:27:11;;;;;;;161.12;64.17;;;;;;;-6.30;66.79;101541.67;2005394;88;29670;-65
2022/03/02 03:30:15;;;;;;;162.43;62.60;;;;;;;-6.32;66.82;101536.41;2004811;88;27859;-65
2022/03/02 03:33:17;;;;;;;156.90;63.42;;;;;;;-6.34;66.80;101536.76;2014960;87;29530;-66
2022/03/02 03:36:19;;;;;;;154.20;63.30;;;;;;;-6.36;66.83;101530.98;2000544;89;31083;-65
2022/03/02 03:39:21;;;;;;;143.05;62.78;;;;;;;-6.38;66.88;101524.42;2009425;88;33013;-69
2022/03/02 03:42:23;;;;;;;151.40;60.83;;;;;;;-6.38;66.90;101526.16;2009900;87;29673;-66
2022/03/02 03:45:25;;;;;;;152.90;62.25;;;;;;;-6.41;66.90;101531.72;2010062;87;27938;-66
2022/03/02 03:48:26;;;;;;;146.25;62.30;;;;;;;-6.42;66.99;101523.42;2013316;88;28663;-66
2022/03/02 03:51:28;;;;;;;155.87;60.60;;;;;;;-6.44;66.97;101519.86;2010355;88;32436;-65
2022/03/02 03:54:30;;;;;;;151.00;62.20;;;;;;;-6.45;66.96;101524.59;2009614;88;33899;-65
2022/03/02 03:57:32;;;;;;;153.78;63.17;;;;;;;-6.46;67.00;101529.77;2009234;88;29665;-69
2022/03/02 04:00:34;;;;;;;143.35;61.20;;;;;;;-6.49;67.00;101525.72;2009298;88;28321;-68
2022/03/02 04:03:36;;;;;;;153.27;62.62;;;;;;;-6.49;67.18;101529.63;2017671;87;28846;-65
2022/03/02 04:06:38;;;;;;;148.72;64.55;;;;;;;-6.52;67.16;101526.89;2029021;87;31035;-65
2022/03/02 04:09:40;;;;;;;144.45;61.65;;;;;;;-6.53;67.17;101523.38;2009802;88;32990;-67
2022/03/02 04:12:43;;;;;;;164.88;66.22;;;;;;;-6.54;67.16;101522.03;2009505;88;30570;-66
2022/03/02 04:15:45;;;;;;;156.80;65.45;;;;;;;-6.56;67.22;101518.95;2009463;88;27699;-70
2022/03/02 04:18:47;;;;;;;161.85;65.78;;;;;;;-6.56;67.28;101517.64;2009081;88;28707;-64
2022/03/02 04:21:49;;;;;;;153.10;65.60;;;;;;;-6.57;67.38;101505.44;2009789;88;31061;-64
2022/03/02 04:24:51;;;;;;;163.47;67.92;;;;;;;-6.58;67.40;101506.70;2009649;88;33792;-64
2022/03/02 04:27:53;;;;;;;153.25;67.75;;;;;;;-6.58;67.37;101509.30;2010218;87;29649;-62
2022/03/02 04:30:56;;;;;;;144.22;63.60;;;;;;;-6.60;67.41;101509.22;2009145;88;27812;-64
2022/03/02 04:33:57;;;;;;;189.57;74.82;;;;;;;-6.61;67.42;101497.44;2009555;88;28862;-63
2022/03/02 04:36:59;;;;;;;165.15;70.65;;;;;;;-6.62;67.53;101502.18;2009108;88;30510;-65
2022/03/02 04:40:04;;;;;;;166.77;69.15;;;;;;;-6.63;67.50;101498.70;2013102;87;33881;-64
2022/03/02 04:43:06;;;;;;;151.45;64.12;;;;;;;-6.64;67.49;101492.10;2012649;88;30540;-64
2022/03/02 04:46:08;;;;;;;162.00;68.70;;;;;;;-6.65;67.49;101490.33;2013537;88;27753;-64
2022/03/02 04:49:13;;;;;;;165.50;68.85;;;;;;;-6.66;67.46;101495.05;2011973;87;28655;-63
2022/03/02 04:52:15;;;;;;;156.07;66.97;;;;;;;-6.69;67.48;101489.32;2013213;88;31170;-64
2022/03/02 04:55:18;;;;;;;159.18;68.42;;;;;;;-6.69;67.53;101481.50;2010624;88;32621;-65
2022/03/02 04:58:20;;;;;;;172.85;71.30;;;;;;;-6.69;67.51;101476.29;2009159;88;29639;-64
2022/03/02 05:01:21;;;;;;;187.92;80.53;;;;;;;-6.71;67.66;101477.94;2009941;88;27682;-66
2022/03/02 05:04:24;;;;;;;231.78;92.35;;;;;;;-6.71;67.83;101479.24;2010029;88;28641;-64
2022/03/02 05:07:25;;;;;;;253.15;95.87;;;;;;;-6.71;67.79;101467.52;2009747;88;31054;-64
2022/03/02 05:10:27;;;;;;;233.15;91.42;;;;;;;-6.72;67.78;101477.47;2010467;88;33058;-71
2022/03/02 05:13:29;;;;;;;205.12;85.70;;;;;;;-6.73;67.79;101475.69;2043354;87;29822;-69
2022/03/02 05:16:31;;;;;;;241.63;89.52;;;;;;;-6.75;67.77;101475.64;2044506;87;27742;-64
2022/03/02 05:19:33;;;;;;;294.50;104.05;;;;;;;-6.76;67.86;101480.37;2044423;87;29350;-65
2022/03/02 05:22:35;;;;;;;270.25;99.10;;;;;;;-6.77;68.06;101478.98;2044488;87;31735;-70
2022/03/02 05:25:37;;;;;;;283.15;99.72;;;;;;;-6.75;68.08;101475.64;2044377;87;32918;-63
2022/03/02 05:28:39;;;;;;;304.10;106.83;;;;;;;-6.75;68.06;101475.64;2044374;87;29640;-66
2022/03/02 05:31:40;;;;;;;269.00;98.67;;;;;;;-6.76;68.12;101475.16;2021153;87;27703;-65
2022/03/02 05:34:43;;;;;;;288.73;103.53;;;;;;;-6.75;68.09;101477.34;2009519;88;28798;-63
2022/03/02 05:37:44;;;;;;;264.00;97.95;;;;;;;-6.75;68.14;101479.55;2009736;88;31899;-69
2022/03/02 05:40:46;;;;;;;278.95;100.05;;;;;;;-6.73;68.24;101485.71;2009843;88;33702;-64
2022/03/02 05:43:48;;;;;;;220.25;86.72;;;;;;;-6.71;68.38;101481.85;2009973;88;29681;-63
2022/03/02 05:46:50;;;;;;;205.80;76.70;;;;;;;-6.67;68.98;101488.06;2009464;88;27635;-70
2022/03/02 05:49:52;;;;;;;220.93;86.50;;;;;;;-6.59;69.02;101484.06;2009841;88;28645;-66
2022/03/02 05:52:53;;;;;;;204.90;79.77;;;;;;;-6.54;68.97;101486.45;2010007;87;30435;-65
2022/03/02 05:55:55;;;;;;;187.12;71.37;;;;;;;-6.48;68.79;101485.80;1980767;89;32844;-65
2022/03/02 05:58:58;;;;;;;182.05;71.60;;;;;;;-6.44;68.71;101484.66;1981590;89;30415;-64
2022/03/02 06:02:00;;;;;;;169.05;66.30;;;;;;;-6.37;68.79;101484.92;1991769;88;27772;-69
2022/03/02 06:05:01;;;;;;;176.50;70.10;;;;;;;-6.33;68.74;101479.88;2011750;88;28636;-65
2022/03/02 06:08:03;;;;;;;157.88;63.55;;;;;;;-6.28;68.82;101479.61;2009777;88;31015;-65
2022/03/02 06:11:06;;;;;;;151.85;65.30;;;;;;;-6.20;68.89;101476.42;2009749;88;33767;-65
2022/03/02 06:14:10;;;;;;;176.95;75.12;;;;;;;-6.14;68.93;101485.36;2010984;87;30423;-72
2022/03/02 06:17:13;;;;;;;209.92;80.38;;;;;;;-6.06;69.02;101493.48;2013232;87;27642;-66
2022/03/02 06:20:18;;;;;;;246.87;85.90;;;;;;;-5.99;69.14;101495.47;2009166;88;28713;-65
2022/03/02 06:23:21;;;;;;;248.97;90.03;;;;;;;-5.88;69.31;101491.05;2009548;88;30475;-67
2022/03/02 06:26:25;;;;;;;220.37;83.42;;;;;;;-5.71;69.47;101492.98;2008747;88;32985;-65
2022/03/02 06:29:26;;;;;;;195.68;74.62;;;;;;;-5.49;69.45;101490.73;2009396;88;29399;-66
2022/03/02 06:32:29;;;;;;;169.77;69.92;;;;;;;-5.23;69.54;101484.20;2009754;88;27730;-66
2022/03/02 06:35:31;;;;;;;169.43;64.90;;;;;;;-4.97;69.45;101480.29;1998767;88;29747;-64
2022/03/02 06:38:34;;;;;;;146.60;61.48;;;;;;;-4.69;69.43;101478.13;1996729;89;31103;-65
2022/03/02 06:41:46;;;;;;;122.37;52.98;;;;;;;-4.39;69.45;101472.52;1997450;87;32974;-64
2022/03/02 06:45:02;;;;;;;101.90;45.70;;;;;;;-4.10;69.45;101469.47;2004485;87;29725;-65
2022/03/02 06:48:12;;;;;;;103.30;43.98;;;;;;;-3.75;69.25;101474.84;2024661;87;27639;-64
2022/03/02 06:51:15;;;;;;;89.90;39.50;;;;;;;-3.45;69.10;101456.87;2025346;87;28830;-67
2022/03/02 06:54:19;;;;;;;81.08;38.70;;;;;;;-3.16;68.91;101461.98;2025570;87;32022;-65
2022/03/02 06:57:25;;;;;;;73.65;36.30;;;;;;;-2.85;68.78;101463.18;2025500;87;32989;-66
2022/03/02 07:00:30;;;;;;;86.08;37.55;;;;;;;-2.50;68.46;101464.45;2025511;87;29652;-69
2022/03/02 07:03:37;;;;;;;93.97;43.23;;;;;;;-2.14;68.35;101470.02;2025664;87;27743;-65
2022/03/02 07:06:40;;;;;;;91.42;38.85;;;;;;;-1.79;68.12;101463.31;2013919;87;28707;-68
2022/03/02 07:09:42;;;;;;;87.53;39.05;;;;;;;-1.45;67.44;101463.97;2033562;87;31190;-66
2022/03/02 07:12:44;;;;;;;77.37;38.90;;;;;;;-1.07;67.34;101459.83;2033616;87;33127;-65
2022/03/02 07:15:45;;;;;;;82.53;38.38;;;;;;;-0.68;66.67;101463.08;2003755;87;29811;-71
2022/03/02 07:18:47;;;;;;;74.60;37.28;;;;;;;-0.31;66.43;101452.20;1999003;88;27695;-66
2022/03/02 07:21:49;;;;;;;76.33;38.13;;;;;;;0.05;65.69;101454.00;1996923;89;28655;-65
2022/03/02 07:24:54;;;;;;;81.17;40.17;;;;;;;0.42;65.34;101451.77;1997154;89;31144;-70
2022/03/02 07:27:58;;;;;;;66.82;37.35;;;;;;;0.83;65.09;101440.77;1997231;89;33156;-65
2022/03/02 07:31:00;;;;;;;77.20;35.27;;;;;;;1.21;64.15;101439.31;1997271;89;29701;-66
2022/03/02 07:34:03;;;;;;;84.58;38.78;;;;;;;1.53;63.20;101441.73;2005209;87;27743;-66
2022/03/02 07:37:05;;;;;;;73.72;36.05;;;;;;;1.82;63.10;101437.50;1975801;88;28794;-66
2022/03/02 07:40:08;;;;;;;76.02;37.93;;;;;;;2.18;62.10;101440.73;2009956;88;31078;-66
2022/03/02 07:43:10;;;;;;;69.75;36.65;;;;;;;2.49;62.28;101446.11;2009578;87;33629;-66
2022/03/02 07:46:12;;;;;;;66.62;38.08;;;;;;;2.78;61.41;101436.91;2042555;87;30601;-66
2022/03/02 07:49:14;;;;;;;71.10;38.63;;;;;;;3.06;61.20;101440.87;2042612;87;27673;-67
2022/03/02 07:52:17;;;;;;;75.50;39.65;;;;;;;3.31;60.35;101435.12;2042443;87;28639;-67
2022/03/02 07:55:19;;;;;;;74.27;38.30;;;;;;;3.50;60.13;101429.34;2042352;87;32035;-68
2022/03/02 07:58:22;;;;;;;71.85;39.53;;;;;;;3.76;60.23;101428.41;2027523;87;33756;-68
2022/03/02 08:01:25;;;;;;;79.25;40.75;;;;;;;4.03;59.39;101426.53;2009489;88;30588;-68
2022/03/02 08:04:28;;;;;;;74.00;39.80;;;;;;;4.25;58.83;101419.81;2040582;87;27670;-68
2022/03/02 08:07:29;;;;;;;78.22;40.38;;;;;;;4.49;59.03;101415.23;2042190;87;28873;-66
2022/03/02 08:10:32;;;;;;;69.05;38.17;;;;;;;4.71;58.26;101413.34;2042544;87;31044;-67
2022/03/02 08:13:36;;;;;;;75.52;38.17;;;;;;;4.91;57.03;101414.51;2042549;87;32125;-67
2022/03/02 08:16:38;;;;;;;61.53;34.43;;;;;;;5.03;56.37;101410.88;2042502;87;29108;-72
2022/03/02 08:19:40;;;;;;;71.05;36.63;;;;;;;5.23;57.13;101411.12;2013584;87;27765;-67
2022/03/02 08:22:48;;;;;;;55.03;29.20;;;;;;;5.54;56.20;101408.17;1974361;88;28632;-66
2022/03/02 08:25:53;;;;;;;53.52;29.77;;;;;;;5.90;55.78;101413.52;1998557;89;31294;-65
2022/03/02 08:28:56;;;;;;;45.33;26.85;;;;;;;6.23;54.53;101410.02;1999343;89;33664;-65
2022/03/02 08:32:01;;;;;;;57.67;30.08;;;;;;;6.39;53.47;101408.00;1978184;89;30654;-64
2022/03/02 08:35:05;;;;;;;50.05;27.77;;;;;;;6.45;53.77;101403.07;1998446;88;27597;-65
2022/03/02 08:38:07;;;;;;;46.50;27.32;;;;;;;6.46;53.73;101395.95;2000646;89;28877;-64
2022/03/02 08:41:10;;;;;;;47.05;26.23;;;;;;;6.41;53.14;101404.01;2000629;89;31944;-64
2022/03/02 08:44:13;;;;;;;51.53;28.73;;;;;;;6.27;52.43;101401.53;2000595;88;33885;-64
2022/03/02 08:47:15;;;;;;;46.90;25.68;;;;;;;6.14;53.13;101401.27;2000642;89;30382;-72
2022/03/02 08:50:17;;;;;;;47.95;26.90;;;;;;;6.04;52.98;101395.19;2002797;87;27739;-67
2022/03/02 08:53:19;;;;;;;47.08;26.35;;;;;;;5.94;53.07;101397.05;2007265;88;28181;-69
2022/03/02 08:56:23;;;;;;;44.05;25.43;;;;;;;5.87;53.00;101404.70;2005999;88;31056;-68
2022/03/02 08:59:25;;;;;;;45.73;25.50;;;;;;;5.77;52.96;101395.95;2013333;88;33061;-64
2022/03/02 09:02:29;;;;;;;48.17;26.07;;;;;;;5.72;52.25;101394.65;2017372;87;29715;-68
2022/03/02 09:05:32;;;;;;;47.15;26.45;;;;;;;5.71;51.96;101384.91;2021260;87;27715;-64
2022/03/02 09:08:34;;;;;;;38.48;23.45;;;;;;;5.65;52.06;101379.69;2029726;87;28665;-67
2022/03/02 09:11:38;;;;;;;36.42;19.75;;;;;;;5.60;51.24;101378.84;1994819;89;31879;-68
2022/03/02 09:14:39;;;;;;;39.90;21.30;;;;;;;5.53;51.49;101375.84;2000673;89;33903;-68
2022/03/02 09:17:41;;;;;;;40.83;21.10;;;;;;;5.57;51.36;101374.89;2009934;88;29936;-66
2022/03/02 09:20:44;;;;;;;36.42;20.48;;;;;;;5.54;50.90;101373.63;2009965;87;27685;-67
2022/03/02 09:23:46;;;;;;;38.95;20.20;;;;;;;5.52;50.83;101370.96;2012049;88;28829;-67
2022/03/02 09:26:49;;;;;;;32.35;18.25;;;;;;;5.49;50.48;101363.02;2010712;88;31216;-69
2022/03/02 09:29:52;;;;;;;31.75;18.77;;;;;;;5.48;50.74;101354.18;2009793;87;33139;-67
2022/03/02 09:32:55;;;;;;;29.85;17.85;;;;;;;5.52;50.68;101356.34;2010612;87;29703;-68
2022/03/02 09:35:59;;;;;;;37.80;18.25;;;;;;;5.53;50.84;101353.25;2009628;87;27686;-68
2022/03/02 09:39:02;;;;;;;31.17;16.85;;;;;;;5.57;50.73;101343.89;2010005;88;28794;-67
2022/03/02 09:42:09;;;;;;;30.08;17.10;;;;;;;5.65;50.81;101340.24;2000817;89;31118;-68
2022/03/02 09:45:12;;;;;;;26.55;17.23;;;;;;;5.73;50.84;101343.70;2000459;89;33754;-67
2022/03/02 09:48:30;;;;;;;26.40;16.80;;;;;;;5.84;50.68;101351.08;2000800;89;30583;-68
2022/03/02 09:51:34;;;;;;;31.17;17.62;;;;;;;5.90;50.23;101346.13;2009958;88;28243;-68
2022/03/02 09:54:40;;;;;;;30.82;17.07;;;;;;;5.98;49.89;101340.27;2009890;88;28739;-68
2022/03/02 09:57:47;;;;;;;27.67;15.40;;;;;;;6.00;49.70;101341.16;2000838;89;31049;-70
2022/03/02 10:00:49;;;;;;;28.92;17.07;;;;;;;6.00;49.37;101333.62;2000797;89;32985;-67
2022/03/02 10:03:53;;;;;;;26.35;15.78;;;;;;;5.95;48.88;101331.46;2013399;88;29697;-68
2022/03/02 10:07:26;;;;;;;25.70;15.58;;;;;;;5.96;49.23;101339.41;2013877;88;27724;-68
2022/03/02 10:10:10;;;;;;;24.72;14.05;;;;;;;5.95;48.45;101328.80;2014580;88;29550;-68
2022/03/02 10:13:14;;;;;;;30.88;16.60;;;;;;;5.91;47.01;101331.50;2013826;88;31852;-67
2022/03/02 10:16:24;;;;;;;30.62;17.45;;;;;;;5.85;48.29;101331.56;2013880;88;34074;-67
2022/03/02 10:19:27;;;;;;;27.50;16.25;;;;;;;5.86;47.72;101329.80;2013824;88;30458;-68
2022/03/02 10:22:52;;;;;;;25.45;15.38;;;;;;;5.79;47.15;101325.02;2014115;88;27615;-68
2022/03/02 10:26:20;;;;;;;30.10;14.30;;;;;;;5.76;47.41;101316.61;2014159;88;28935;-68
2022/03/02 10:29:31;;;;;;;26.87;14.38;;;;;;;5.76;47.50;101315.28;2013602;88;31110;-67
2022/03/02 10:32:35;;;;;;;26.07;14.45;;;;;;;5.75;46.45;101312.66;2011694;87;33603;-68
2022/03/02 10:35:39;;;;;;;24.95;14.18;;;;;;;5.72;47.15;101301.59;2009642;87;29650;-68
2022/03/02 10:39:00;;;;;;;29.63;16.07;;;;;;;5.71;46.19;101302.95;2000983;88;27708;-67
2022/03/02 10:42:05;;;;;;;29.40;16.48;;;;;;;5.66;46.59;101299.03;2009319;88;28700;-66
2022/03/02 10:45:23;;;;;;;28.90;15.20;;;;;;;5.68;47.11;101297.67;2009984;88;31393;-65
2022/03/02 10:48:47;;;;;;;24.12;13.60;;;;;;;5.66;46.19;101297.70;2000366;89;33114;-66
2022/03/02 10:51:49;;;;;;;27.45;14.58;;;;;;;5.59;46.04;101299.56;2000905;89;29696;-65
2022/03/02 10:54:56;;;;;;;27.90;14.85;;;;;;;5.58;46.48;101291.59;2000892;89;27688;-67
2022/03/02 10:58:04;;;;;;;31.10;15.68;;;;;;;5.60;45.37;101287.14;2009941;87;29642;-66
2022/03/02 11:01:07;;;;;;;28.98;14.40;;;;;;;5.57;45.08;101283.19;2010351;87;31104;-65
2022/03/02 11:04:10;;;;;;;24.55;13.65;;;;;;;5.49;45.49;101283.28;2029360;87;33812;-67
2022/03/02 11:07:12;;;;;;;25.30;14.15;;;;;;;5.48;45.59;101282.42;2029271;87;29678;-67
2022/03/02 11:10:20;;;;;;;25.27;13.88;;;;;;;5.47;45.65;101276.67;2029598;87;27747;-66
2022/03/02 11:13:23;;;;;;;25.20;13.78;;;;;;;5.48;45.76;101272.22;2029494;87;28856;-66
2022/03/02 11:16:25;;;;;;;27.35;14.15;;;;;;;5.48;45.54;101265.15;2029682;87;31037;-67
2022/03/02 11:19:29;;;;;;;23.60;13.85;;;;;;;5.48;45.69;101263.82;2056249;86;33611;-66
2022/03/02 11:22:30;;;;;;;25.10;14.65;;;;;;;5.40;44.08;101268.34;2045596;86;30583;-66
2022/03/02 11:25:52;;;;;;;25.60;14.03;;;;;;;5.30;44.41;101260.92;2029462;87;27699;-67
2022/03/02 11:28:58;;;;;;;30.52;16.27;;;;;;;5.24;44.60;101257.03;2029408;87;28720;-65
2022/03/02 11:32:05;;;;;;;39.92;22.90;;;;;;;5.15;44.60;101259.34;2032362;87;31054;-66
2022/03/02 11:35:21;;;;;;;26.90;14.70;;;;;;;5.14;44.25;101254.03;2033293;87;33857;-65
2022/03/02 11:38:31;;;;;;;24.60;14.50;;;;;;;5.09;44.03;101251.91;2035014;87;30284;-66
2022/03/02 11:41:36;;;;;;;30.25;16.37;;;;;;;5.02;44.15;101244.45;2035162;87;27758;-65
2022/03/02 11:44:43;;;;;;;;;;;;;;;5.00;44.53;101244.45;2037591;87;30354;-69
2022/03/02 11:47:53;;;;;;;28.10;13.65;;;;;;;5.00;43.42;101241.80;2034949;87;31113;-67
2022/03/02 11:51:21;;;;;;;28.32;13.98;;;;;;;4.92;43.63;101237.04;2030761;87;33097;-68
2022/03/02 11:54:20;;;;;;;27.85;14.53;;;;;;;4.89;43.62;101233.08;2029645;87;31076;-66
2022/03/02 11:57:26;;;;;;;28.02;14.47;;;;;;;4.88;43.41;101226.48;2030289;87;27719;-68
2022/03/02 12:00:29;;;;;;;24.60;14.28;;;;;;;4.89;44.15;101220.23;2030832;87;29552;-66
2022/03/02 12:03:32;;;;;;;27.10;15.40;;;;;;;4.93;44.35;101220.64;2033909;87;31155;-66
2022/03/02 12:06:54;;;;;;;22.67;13.98;;;;;;;4.97;44.05;101214.41;2035047;86;33085;-65
2022/03/02 12:09:57;;;;;;;27.20;14.87;;;;;;;5.03;44.12;101213.02;2035104;87;29582;-67
2022/03/02 12:12:59;;;;;;;23.10;13.38;;;;;;;5.00;43.10;101207.74;2035077;87;27727;-66
2022/03/02 12:16:01;;;;;;;21.40;12.63;;;;;;;4.96;43.27;101198.05;2035049;87;28743;-67
2022/03/02 12:19:02;;;;;;;29.07;13.30;;;;;;;4.95;42.97;101198.94;2034989;87;30452;-68
2022/03/02 12:22:06;;;;;;;27.55;14.58;;;;;;;4.94;43.39;101190.55;2034947;87;32942;-69
2022/03/02 12:25:12;;;;;;;19.98;11.97;;;;;;;4.97;43.46;101189.19;2034984;87;30404;-66
2022/03/02 12:28:16;;;;;;;20.70;11.78;;;;;;;5.00;42.78;101182.52;2035057;87;27692;-67
2022/03/02 12:31:18;;;;;;;24.02;13.32;;;;;;;5.02;43.45;101172.30;2033124;87;28648;-69
2022/03/02 12:34:20;;;;;;;22.02;12.55;;;;;;;5.08;43.51;101170.47;2007855;87;31035;-67
2022/03/02 12:37:23;;;;;;;41.02;25.65;;;;;;;5.11;42.54;101167.78;1997737;89;32978;-69
2022/03/02 12:40:26;;;;;;;34.65;21.10;;;;;;;5.13;42.71;101167.31;2001585;88;29708;-66
2022/03/02 12:43:29;;;;;;;26.52;13.70;;;;;;;5.14;42.92;101164.62;1998569;89;27788;-68
2022/03/02 12:46:33;;;;;;;23.45;14.15;;;;;;;5.16;42.95;101156.19;2001046;87;29549;-68
2022/03/02 12:49:37;;;;;;;29.65;15.88;;;;;;;5.20;42.71;101157.02;1999011;88;31022;-67
2022/03/02 12:52:40;;;;;;;28.65;14.93;;;;;;;5.20;42.08;101161.00;2001648;88;33244;-67
2022/03/02 12:55:42;;;;;;;26.55;14.68;;;;;;;5.16;42.25;101157.52;1998523;89;29694;-68
2022/03/02 12:58:44;;;;;;;21.97;13.35;;;;;;;5.15;42.11;101154.43;1979880;89;27770;-67
2022/03/02 13:01:46;;;;;;;25.97;13.53;;;;;;;5.15;42.16;101145.56;2008340;88;28477;-67
2022/03/02 13:05:03;;;;;;;24.90;14.53;;;;;;;5.19;42.12;101150.41;2008188;88;31054;-67
2022/03/02 13:08:43;;;;;;;29.07;15.30;;;;;;;5.21;42.60;101142.84;2008198;88;33322;-66
2022/03/02 13:11:45;;;;;;;27.65;15.28;;;;;;;5.23;43.15;101137.06;2003295;88;29657;-66
2022/03/02 13:14:47;;;;;;;29.07;16.52;;;;;;;5.30;43.29;101133.86;2014818;87;27683;-66
2022/03/02 13:18:12;;;;;;;30.23;16.00;;;;;;;5.34;42.92;101132.92;2014968;88;28311;-66
2022/03/02 13:21:32;;;;;;;26.70;14.70;;;;;;;5.32;42.73;101129.41;2015413;88;31178;-67
2022/03/02 13:24:45;;;;;;;22.77;13.43;;;;;;;5.33;42.80;101127.19;2015360;88;33130;-66
2022/03/02 13:28:12;;;;;;;24.55;12.03;;;;;;;5.36;42.69;101117.84;2015128;88;29694;-66
2022/03/02 13:31:17;;;;;;;19.60;9.53;;;;;;;5.39;42.21;101116.91;2014469;88;27680;-67
2022/03/02 13:34:22;;;;;;;16.35;9.65;;;;;;;5.36;41.00;101112.53;2013893;88;28511;-66
2022/03/02 13:37:24;;;;;;;15.25;9.98;;;;;;;5.32;41.39;101105.03;2013645;87;31147;-65
2022/03/02 13:40:43;;;;;;;19.98;10.55;;;;;;;5.30;41.19;101102.84;1991574;88;33161;-67
2022/03/02 13:43:44;;;;;;;16.52;9.00;;;;;;;5.29;41.36;101103.78;2007750;88;30723;-66
2022/03/02 13:47:13;;;;;;;20.55;10.65;;;;;;;5.26;40.99;101098.50;2024384;87;27604;-66
2022/03/02 13:50:19;;;;;;;15.48;9.63;;;;;;;5.25;41.08;101096.74;2030953;87;28669;-66
2022/03/02 13:53:39;;;;;;;23.32;12.03;;;;;;;5.25;40.71;101086.12;2030819;87;32303;-66
2022/03/02 13:56:43;;;;;;;16.67;9.65;;;;;;;5.26;40.97;101087.87;2030658;87;33019;-67